Agapi S — D5AR6 — position and weather

sailwx.info

Track history (hours):
 
Tides and Currents Weather Stations Pressure Air Temp Water Temp Dewpoint Dewpoint Depression Visibility Wind Speed Wind Dir Waves Ship Positions

Agapi S

Last reported at 2018-May-16 10:39 UTC. Time now 2018-May-27 03:21 UTC.
Position N 36°00' W 005°12'.
Warning: this ship's position is 10 days out of date.

Length 207 m; draft 11.5 m.

Type: Ship. MMSI: 636015430.

Date/timePositionNaut miles runAvg speedWind from/ knotsBaromVisibWave heightAir tempDewpointWater temp
2018-May-16 10:39N 36°00' W 005°12'211.7
2018-May-16 10:31N 36°00' W 005°14'611.9
2018-May-16 10:00N 35°59' W 005°21'612.4
2018-May-16 09:30N 35°57' W 005°29'156 9.8
2018-May-15 17:40N 35°55' W 008°41'3211.4
2018-May-15 14:52N 35°55' W 009°20'611.2
2018-May-15 14:18N 35°55' W 009°28'  
2018-May-13 00:20N 36°04' W 023°05'2911.5
2018-May-12 21:50N 36°03' W 023°41'411.8
2018-May-12 21:27N 36°03' W 023°46'611.7
2018-May-12 20:55N 36°03' W 023°54'511.5
2018-May-12 20:30N 36°03' W 023°60'511.1
2018-May-12 20:00N 36°03' W 024°07'611.3
2018-May-12 19:30N 36°03' W 024°14'611.2
2018-May-12 19:00N 36°03' W 024°21'611.3
2018-May-12 18:30N 36°02' W 024°28'611.5
2018-May-12 18:00N 36°02' W 024°35'611.6
2018-May-12 17:30N 36°01' W 024°42'611.8
2018-May-12 17:00N 36°01' W 024°49'611.6
2018-May-12 16:30N 36°00' W 024°56'611.8
2018-May-12 16:00N 36°00' W 025°03'612.0
2018-May-12 15:30N 36°00' W 025°11'611.9
2018-May-12 15:00N 36°00' W 025°18'611.7
2018-May-12 14:30N 36°01' W 025°25'611.7
2018-May-12 14:01N 36°01' W 025°33'611.6
2018-May-12 13:30N 36°01' W 025°40'611.5
2018-May-12 13:00N 36°01' W 025°47'611.3
2018-May-12 12:28N 36°01' W 025°54'511.2
2018-May-12 12:01N 36°02' W 026°01'1011.1
2018-May-12 11:08N 36°02' W 026°13'5611.4
2018-May-12 06:15N 36°03' W 027°22'411.3
2018-May-12 05:52N 36°03' W 027°27'2011.3
2018-May-12 04:06N 36°03' W 027°52'311.0
2018-May-12 03:52N 36°03' W 027°55'9511.1
2018-May-11 19:17N 36°03' W 029°53'1311.4
2018-May-11 18:08N 36°02' W 030°09'211.7
2018-May-11 18:00N 36°02' W 030°11'611.3
2018-May-11 17:28N 36°02' W 030°19'511.4
2018-May-11 17:01N 36°02' W 030°25'711.4
2018-May-11 16:22N 36°02' W 030°34'1011.2
2018-May-11 15:31N 36°02' W 030°46'012.0
2018-May-11 15:30N 36°02' W 030°46'611.3
2018-May-11 15:00N 36°02' W 030°53'3911.1
2018-May-11 11:31N 36°01' W 031°41'011.7
2018-May-11 11:29N 36°01' W 031°41'  
Track history (hours):
 
Tides and Currents Weather Stations Pressure Air Temp Water Temp Dewpoint Dewpoint Depression Visibility Wind Speed Wind Dir Waves Ship Positions

Agapi S

Last reported at 2018-May-16 10:39 UTC. Time now 2018-May-27 03:21 UTC.
Position N 36°00' W 005°12'.
Warning: this ship's position is 10 days out of date.

Length 207 m; draft 11.5 m.

Type: Ship. MMSI: 636015430.

Date/timePositionNaut miles runAvg speedWind from/ knotsBaromVisibWave heightAir tempDewpointWater temp
2018-May-16 10:39N 36°00' W 005°12'211.7
2018-May-16 10:31N 36°00' W 005°14'611.9
2018-May-16 10:00N 35°59' W 005°21'612.4
2018-May-16 09:30N 35°57' W 005°29'156 9.8
2018-May-15 17:40N 35°55' W 008°41'3211.4
2018-May-15 14:52N 35°55' W 009°20'611.2
2018-May-15 14:18N 35°55' W 009°28'  
2018-May-13 00:20N 36°04' W 023°05'2911.5
2018-May-12 21:50N 36°03' W 023°41'411.8
2018-May-12 21:27N 36°03' W 023°46'611.7
2018-May-12 20:55N 36°03' W 023°54'511.5
2018-May-12 20:30N 36°03' W 023°60'511.1
2018-May-12 20:00N 36°03' W 024°07'611.3
2018-May-12 19:30N 36°03' W 024°14'611.2
2018-May-12 19:00N 36°03' W 024°21'611.3
2018-May-12 18:30N 36°02' W 024°28'611.5
2018-May-12 18:00N 36°02' W 024°35'611.6
2018-May-12 17:30N 36°01' W 024°42'611.8
2018-May-12 17:00N 36°01' W 024°49'611.6
2018-May-12 16:30N 36°00' W 024°56'611.8
2018-May-12 16:00N 36°00' W 025°03'612.0
2018-May-12 15:30N 36°00' W 025°11'611.9
2018-May-12 15:00N 36°00' W 025°18'611.7
2018-May-12 14:30N 36°01' W 025°25'611.7
2018-May-12 14:01N 36°01' W 025°33'611.6
2018-May-12 13:30N 36°01' W 025°40'611.5
2018-May-12 13:00N 36°01' W 025°47'611.3
2018-May-12 12:28N 36°01' W 025°54'511.2
2018-May-12 12:01N 36°02' W 026°01'1011.1
2018-May-12 11:08N 36°02' W 026°13'5611.4
2018-May-12 06:15N 36°03' W 027°22'411.3
2018-May-12 05:52N 36°03' W 027°27'2011.3
2018-May-12 04:06N 36°03' W 027°52'311.0
2018-May-12 03:52N 36°03' W 027°55'9511.1
2018-May-11 19:17N 36°03' W 029°53'1311.4
2018-May-11 18:08N 36°02' W 030°09'211.7
2018-May-11 18:00N 36°02' W 030°11'611.3
2018-May-11 17:28N 36°02' W 030°19'511.4
2018-May-11 17:01N 36°02' W 030°25'711.4
2018-May-11 16:22N 36°02' W 030°34'1011.2
2018-May-11 15:31N 36°02' W 030°46'012.0
2018-May-11 15:30N 36°02' W 030°46'611.3
2018-May-11 15:00N 36°02' W 030°53'3911.1
2018-May-11 11:31N 36°01' W 031°41'011.7
2018-May-11 11:29N 36°01' W 031°41'  

Dump ship's entire track history